Time;durP1;ratioP1;P1;durP2;ratioP2;P2;SDS_P1;SDS_P2;PMS_P1;PMS_P2;Temp;Humidity;BMP_temperature;BMP_pressure;BME280_temperature;BME280_humidity;BME280_pressure;Samples;Min_cycle;Max_cycle;Signal;HPM_P1;HPM_P2
2022/04/24 00:01:57;;;;;;;2.58;1.85;;;9.60;99.90;;;;;;5034712;28;20044;-70
2022/04/24 00:04:24;;;;;;;3.33;2.78;;;9.60;99.90;;;;;;5051434;28;20345;-70
2022/04/24 00:06:52;;;;;;;1.83;1.65;;;9.50;99.90;;;;;;5051344;28;20037;-70
2022/04/24 00:09:18;;;;;;;3.40;2.67;;;9.50;99.90;;;;;;5035155;28;20442;-70
2022/04/24 00:11:43;;;;;;;3.42;2.65;;;9.40;99.90;;;;;;5053652;28;20040;-70
2022/04/24 00:14:10;;;;;;;3.35;3.00;;;9.40;99.90;;;;;;5081526;28;20036;-70
2022/04/24 00:16:37;;;;;;;3.97;3.22;;;9.40;99.90;;;;;;5051293;28;20084;-70
2022/04/24 00:19:04;;;;;;;6.93;2.92;;;9.30;99.90;;;;;;5048408;28;20089;-70
2022/04/24 00:21:29;;;;;;;2.28;2.08;;;9.30;99.90;;;;;;5045996;28;20071;-70
2022/04/24 00:23:55;;;;;;;4.57;3.40;;;9.30;99.90;;;;;;5048506;28;20507;-69
2022/04/24 00:26:21;;;;;;;3.33;2.03;;;9.20;99.90;;;;;;5037475;28;20051;-70
2022/04/24 00:28:46;;;;;;;3.90;3.00;;;9.20;99.90;;;;;;5049481;28;20036;-71
2022/04/24 00:31:12;;;;;;;1.40;1.30;;;9.20;99.90;;;;;;5060166;28;20040;-71
2022/04/24 00:33:37;;;;;;;7.53;3.97;;;9.20;99.90;;;;;;5036539;28;20476;-70
2022/04/24 00:36:03;;;;;;;3.47;2.70;;;9.20;99.90;;;;;;5042756;28;20111;-69
2022/04/24 00:38:35;;;;;;;0.70;0.70;;;9.20;99.90;;;;;;5051039;28;20586;-70
2022/04/24 00:41:01;;;;;;;9.70;3.72;;;9.10;99.90;;;;;;5069378;28;20044;-70
2022/04/24 00:43:27;;;;;;;4.68;2.63;;;9.10;99.90;;;;;;5031766;28;20049;-70
2022/04/24 00:46:07;;;;;;;0.90;0.90;;;9.10;99.90;;;;;;5047821;28;20086;-70
2022/04/24 00:48:33;;;;;;;3.45;2.92;;;9.10;99.90;;;;;;5030787;28;20474;-70
2022/04/24 00:50:59;;;;;;;3.88;3.47;;;9.00;99.90;;;;;;5036485;28;20110;-69
2022/04/24 00:53:25;;;;;;;0.82;0.82;;;9.00;99.90;;;;;;5034871;28;20072;-70
2022/04/24 00:55:51;;;;;;;6.05;3.90;;;9.00;99.90;;;;;;5038391;28;20048;-70
2022/04/24 00:58:18;;;;;;;1.23;1.05;;;8.90;99.90;;;;;;5051218;28;20130;-70
2022/04/24 01:00:44;;;;;;;7.20;3.20;;;8.90;99.90;;;;;;5047710;28;20044;-70
2022/04/24 01:03:12;;;;;;;3.03;2.65;;;8.90;99.90;;;;;;5031490;28;20045;-69
2022/04/24 01:05:38;;;;;;;4.10;2.58;;;8.90;99.90;;;;;;5050140;28;20041;-70
2022/04/24 01:08:04;;;;;;;1.77;1.67;;;8.80;99.90;;;;;;5051928;28;20109;-69
2022/04/24 01:10:37;;;;;;;2.25;1.83;;;8.80;99.90;;;;;;5054862;28;20503;-70
2022/04/24 01:13:06;;;;;;;5.30;3.92;;;8.80;99.90;;;;;;5050467;28;20466;-70
2022/04/24 01:15:33;;;;;;;2.92;2.63;;;8.70;99.90;;;;;;5020193;28;20041;-69
2022/04/24 01:17:59;;;;;;;11.07;2.72;;;8.80;99.90;;;;;;5051731;28;20079;-70
2022/04/24 01:20:40;;;;;;;2.45;1.70;;;8.70;99.90;;;;;;5011600;28;20088;-69
2022/04/24 01:23:05;;;;;;;2.25;2.05;;;8.70;99.90;;;;;;4973739;28;20152;-70
2022/04/24 01:25:31;;;;;;;3.42;2.38;;;8.60;99.90;;;;;;4970195;28;20090;-70
2022/04/24 01:27:57;;;;;;;5.28;3.38;;;8.60;99.90;;;;;;4993713;28;20563;-69
2022/04/24 01:30:22;;;;;;;0.80;0.80;;;8.60;99.90;;;;;;4988559;28;20038;-69
2022/04/24 01:32:48;;;;;;;6.30;4.47;;;8.50;99.90;;;;;;5001018;28;20418;-69
2022/04/24 01:35:15;;;;;;;4.13;3.22;;;8.50;99.90;;;;;;4980365;28;20107;-70
2022/04/24 01:37:44;;;;;;;2.42;1.48;;;8.50;99.90;;;;;;4999268;28;20061;-70
2022/04/24 01:40:10;;;;;;;7.72;3.80;;;8.50;99.90;;;;;;5001921;28;20046;-70
2022/04/24 01:42:35;;;;;;;1.17;1.13;;;8.50;99.90;;;;;;4977523;28;20053;-69
2022/04/24 01:45:01;;;;;;;5.20;2.22;;;8.50;99.90;;;;;;4970842;28;20573;-70
2022/04/24 01:47:26;;;;;;;4.47;2.83;;;8.50;99.90;;;;;;4993651;28;20042;-69
2022/04/24 01:49:52;;;;;;;3.55;2.92;;;8.40;99.90;;;;;;4993435;28;20061;-69
2022/04/24 01:52:17;;;;;;;2.67;2.47;;;8.50;99.90;;;;;;4976456;28;20664;-70
2022/04/24 01:54:43;;;;;;;2.35;2.00;;;8.40;99.90;;;;;;4993669;28;20045;-70
2022/04/24 01:57:09;;;;;;;3.65;2.70;;;8.40;99.90;;;;;;5001596;28;20107;-70
2022/04/24 01:59:34;;;;;;;6.63;3.85;;;8.40;99.90;;;;;;5050518;28;20055;-70
2022/04/24 02:02:00;;;;;;;1.70;1.38;;;8.30;99.90;;;;;;5045968;28;20128;-69
2022/04/24 02:04:26;;;;;;;1.58;1.40;;;8.40;99.90;;;;;;5043623;28;20045;-70
2022/04/24 02:06:51;;;;;;;3.83;0.70;;;8.30;99.90;;;;;;5037520;28;20052;-69
2022/04/24 02:09:17;;;;;;;1.30;1.30;;;8.30;99.90;;;;;;5051922;28;20129;-69
2022/04/24 02:11:43;;;;;;;3.85;3.13;;;8.20;99.90;;;;;;5073820;28;20047;-69
2022/04/24 02:14:08;;;;;;;2.38;2.22;;;8.20;99.90;;;;;;5062120;28;20124;-69
2022/04/24 02:16:34;;;;;;;0.60;0.60;;;8.10;99.90;;;;;;5053182;28;20071;-70
2022/04/24 02:19:00;;;;;;;0.40;0.40;;;8.10;99.90;;;;;;5049633;28;20043;-70
2022/04/24 02:21:27;;;;;;;1.52;1.42;;;8.00;99.90;;;;;;5016548;28;20045;-69
2022/04/24 02:23:53;;;;;;;2.55;2.22;;;7.90;99.90;;;;;;5053492;28;20033;-70
2022/04/24 02:26:19;;;;;;;0.30;0.30;;;7.90;99.90;;;;;;5041608;28;20080;-70
2022/04/24 02:28:44;;;;;;;7.05;2.03;;;7.80;99.90;;;;;;5037112;28;20044;-69
2022/04/24 02:31:10;;;;;;;0.95;0.95;;;7.60;99.90;;;;;;5037112;28;20047;-70
2022/04/24 02:33:36;;;;;;;0.25;0.25;;;7.50;99.90;;;;;;5036012;28;20145;-70
2022/04/24 02:36:02;;;;;;;1.33;0.77;;;7.40;99.90;;;;;;5033493;28;20420;-69
2022/04/24 02:38:29;;;;;;;0.22;0.22;;;7.20;99.90;;;;;;5052107;28;20048;-70
2022/04/24 02:40:54;;;;;;;0.30;0.30;;;7.10;99.90;;;;;;5045247;28;20060;-69
2022/04/24 02:43:20;;;;;;;0.30;0.30;;;7.00;99.90;;;;;;5035244;28;20041;-69
2022/04/24 02:45:46;;;;;;;0.30;0.30;;;6.80;99.90;;;;;;5072918;28;20048;-70
2022/04/24 02:48:12;;;;;;;2.97;2.00;;;6.70;99.90;;;;;;5073259;28;20051;-69
2022/04/24 02:50:39;;;;;;;24.33;7.28;;;6.60;99.90;;;;;;5037038;28;20052;-69
2022/04/24 02:53:06;;;;;;;1.08;1.08;;;6.50;99.90;;;;;;5052436;28;20080;-70
2022/04/24 02:55:31;;;;;;;0.40;0.40;;;6.50;99.90;;;;;;5034370;28;20048;-69
2022/04/24 02:57:57;;;;;;;0.30;0.30;;;6.50;99.90;;;;;;5047970;28;20043;-70
2022/04/24 03:00:25;;;;;;;1.02;1.02;;;6.50;99.90;;;;;;5046837;28;20036;-70
2022/04/24 03:02:51;;;;;;;0.40;0.40;;;6.40;99.90;;;;;;5045185;28;20060;-69
2022/04/24 03:05:19;;;;;;;1.05;1.02;;;6.40;99.90;;;;;;5051440;28;20504;-69
2022/04/24 03:07:45;;;;;;;18.95;2.70;;;6.40;99.90;;;;;;5053225;28;20415;-69
2022/04/24 03:10:12;;;;;;;5.07;2.65;;;6.40;99.90;;;;;;5066189;28;20119;-69
2022/04/24 03:12:39;;;;;;;5.43;2.50;;;6.50;99.90;;;;;;5056738;28;20501;-70
2022/04/24 03:15:06;;;;;;;1.70;1.60;;;6.60;99.90;;;;;;5065189;28;20094;-69
2022/04/24 03:17:33;;;;;;;2.97;2.65;;;6.60;99.90;;;;;;5046878;28;20482;-69
2022/04/24 03:19:59;;;;;;;1.90;1.70;;;6.60;99.90;;;;;;5031658;28;20044;-69
2022/04/24 03:22:26;;;;;;;3.45;2.20;;;6.60;99.90;;;;;;5034674;28;20361;-69
2022/04/24 03:24:52;;;;;;;3.35;2.38;;;6.60;99.90;;;;;;5032208;28;20049;-69
2022/04/24 03:27:17;;;;;;;2.15;1.75;;;6.60;99.90;;;;;;5035096;28;20122;-69
2022/04/24 03:29:43;;;;;;;5.47;4.05;;;6.70;99.90;;;;;;5052664;28;20541;-70
2022/04/24 03:32:09;;;;;;;2.33;2.17;;;6.70;99.90;;;;;;5048580;28;20769;-69
2022/04/24 03:34:37;;;;;;;0.52;0.52;;;6.70;99.90;;;;;;5031861;28;20040;-70
2022/04/24 03:37:03;;;;;;;1.15;1.15;;;6.70;99.90;;;;;;5017275;28;20041;-69
2022/04/24 03:39:29;;;;;;;3.67;2.88;;;6.70;99.90;;;;;;5070879;28;20044;-69
2022/04/24 03:41:58;;;;;;;4.82;3.70;;;6.70;99.90;;;;;;5053568;28;20479;-69
2022/04/24 03:44:27;;;;;;;0.80;0.80;;;6.70;99.90;;;;;;5051852;28;20116;-69
2022/04/24 03:46:52;;;;;;;0.88;0.88;;;6.60;99.90;;;;;;5051414;28;20396;-70
2022/04/24 03:49:18;;;;;;;0.63;0.63;;;6.60;99.90;;;;;;5049878;28;20044;-69
2022/04/24 03:51:44;;;;;;;1.63;1.52;;;6.60;99.90;;;;;;5051929;28;20105;-70
2022/04/24 03:54:30;;;;;;;3.25;2.95;;;6.60;99.90;;;;;;5051924;28;20335;-69
2022/04/24 03:56:55;;;;;;;1.58;1.48;;;6.70;99.90;;;;;;4982975;28;20108;-69
2022/04/24 03:59:21;;;;;;;4.40;3.03;;;6.70;99.90;;;;;;4988489;28;20058;-69
2022/04/24 04:01:47;;;;;;;2.15;1.85;;;6.70;99.90;;;;;;4971511;28;20039;-70
2022/04/24 04:04:13;;;;;;;1.63;1.52;;;6.70;99.90;;;;;;4976555;28;20545;-70
2022/04/24 04:06:53;;;;;;;2.97;2.65;;;6.60;99.90;;;;;;4929818;29;20051;-70
2022/04/24 04:09:22;;;;;;;1.17;0.98;;;6.60;99.90;;;;;;4915145;29;20058;-70
2022/04/24 04:11:48;;;;;;;2.67;1.50;;;6.60;99.90;;;;;;4889810;29;20448;-70
2022/04/24 04:14:13;;;;;;;1.63;1.52;;;6.50;99.90;;;;;;4907956;29;20124;-70
2022/04/24 04:16:40;;;;;;;6.10;3.20;;;6.50;99.90;;;;;;4929750;29;20519;-70
2022/04/24 04:19:06;;;;;;;2.10;1.65;;;6.50;99.90;;;;;;4921127;29;20513;-70
2022/04/24 04:21:40;;;;;;;3.42;1.33;;;6.50;99.90;;;;;;4894930;29;20060;-70
2022/04/24 04:24:09;;;;;;;4.57;3.38;;;6.40;99.90;;;;;;4926146;29;20056;-70
2022/04/24 04:26:36;;;;;;;2.05;1.90;;;6.40;99.90;;;;;;4925041;28;20539;-70
2022/04/24 04:29:02;;;;;;;2.60;2.00;;;6.30;99.90;;;;;;4914082;29;20055;-70
2022/04/24 04:34:16;;;;;;;1.60;1.50;;;6.30;99.90;;;;;;4927937;28;20046;-70
2022/04/24 04:36:42;;;;;;;3.28;2.50;;;6.40;99.90;;;;;;4953598;28;20053;-70
2022/04/24 04:39:28;;;;;;;1.58;1.42;;;6.30;99.90;;;;;;4966814;28;20129;-70
2022/04/24 04:44:48;;;;;;;3.10;2.38;;;6.40;99.90;;;;;;4875697;29;20714;-70
2022/04/24 04:50:32;;;;;;;1.58;1.35;;;6.40;99.90;;;;;;4859450;29;20470;-70
2022/04/24 04:53:08;;;;;;;0.55;0.55;;;6.40;99.90;;;;;;4867979;29;20069;-70
2022/04/24 04:55:43;;;;;;;2.55;2.30;;;6.50;99.90;;;;;;4869290;29;20053;-70
2022/04/24 04:58:24;;;;;;;1.23;1.15;;;6.50;99.90;;;;;;4844746;29;20064;-70
2022/04/24 05:00:52;;;;;;;0.88;0.88;;;6.60;99.90;;;;;;4852746;29;20045;-70
2022/04/24 05:03:18;;;;;;;6.38;2.25;;;6.70;99.90;;;;;;4838692;29;20083;-70
2022/04/24 05:05:43;;;;;;;1.17;1.08;;;6.70;99.90;;;;;;4829506;29;20145;-70
2022/04/24 05:08:09;;;;;;;1.98;1.48;;;6.80;99.90;;;;;;4851061;29;20053;-70
2022/04/24 05:10:37;;;;;;;3.13;2.13;;;6.90;99.90;;;;;;4851443;29;20046;-70
2022/04/24 05:13:03;;;;;;;1.23;1.15;;;7.00;99.90;;;;;;4799178;29;20055;-70
2022/04/24 05:15:28;;;;;;;1.00;1.00;;;7.10;99.90;;;;;;4832810;29;20065;-70
2022/04/24 05:17:54;;;;;;;2.28;1.92;;;7.10;99.90;;;;;;4836744;29;20622;-70
2022/04/24 05:20:20;;;;;;;1.75;1.65;;;7.20;99.90;;;;;;4879095;29;20119;-70
2022/04/24 05:22:45;;;;;;;1.75;1.65;;;7.20;99.90;;;;;;4876949;29;20607;-70
2022/04/24 05:25:22;;;;;;;2.33;2.13;;;7.20;99.90;;;;;;4880260;29;20061;-70
2022/04/24 05:27:47;;;;;;;2.75;1.88;;;7.30;99.90;;;;;;4955800;28;20514;-70
2022/04/24 05:30:13;;;;;;;10.27;3.92;;;7.30;99.90;;;;;;4970809;28;20106;-70
2022/04/24 05:32:47;;;;;;;4.43;3.08;;;7.30;99.90;;;;;;4963050;28;20070;-70
2022/04/24 05:35:27;;;;;;;2.95;1.40;;;7.40;99.90;;;;;;4960778;28;20098;-70
2022/04/24 05:37:53;;;;;;;3.28;2.47;;;7.60;99.90;;;;;;4972676;28;20133;-70
2022/04/24 05:40:47;;;;;;;6.78;3.80;;;7.70;99.90;;;;;;4985330;28;20057;-70
2022/04/24 05:43:16;;;;;;;7.95;2.95;;;7.90;99.90;;;;;;4912939;29;20559;-70
2022/04/24 05:45:42;;;;;;;4.95;3.97;;;8.10;99.90;;;;;;4915694;28;20093;-70
2022/04/24 05:48:08;;;;;;;1.55;1.33;;;8.10;99.90;;;;;;4931634;29;20139;-70
2022/04/24 05:50:33;;;;;;;1.73;1.52;;;8.10;99.90;;;;;;4932726;28;20142;-70
2022/04/24 05:53:02;;;;;;;7.30;4.35;;;8.20;99.90;;;;;;4934975;28;20051;-70
2022/04/24 05:55:27;;;;;;;1.83;1.55;;;8.20;99.90;;;;;;4950364;28;20054;-70
2022/04/24 05:57:53;;;;;;;5.07;3.15;;;8.30;99.90;;;;;;4904651;29;20058;-70
2022/04/24 06:00:20;;;;;;;4.07;3.55;;;8.30;99.90;;;;;;4930889;28;20063;-70
2022/04/24 06:02:46;;;;;;;3.47;2.83;;;8.40;99.90;;;;;;4934585;29;20538;-70
2022/04/24 06:05:12;;;;;;;6.95;4.32;;;8.50;99.90;;;;;;4945436;28;20038;-70
2022/04/24 06:07:39;;;;;;;8.25;4.00;;;8.60;99.90;;;;;;4938719;28;20632;-70
2022/04/24 06:10:25;;;;;;;5.72;4.15;;;8.70;99.90;;;;;;4936135;28;20081;-70
2022/04/24 06:12:52;;;;;;;3.85;3.22;;;8.90;99.90;;;;;;4918208;29;20047;-70
2022/04/24 06:15:28;;;;;;;3.97;2.92;;;8.90;99.90;;;;;;4945286;28;20054;-70
2022/04/24 06:17:58;;;;;;;0.50;0.50;;;8.90;99.90;;;;;;4954257;28;20057;-70
2022/04/24 06:20:26;;;;;;;11.40;4.10;;;8.90;99.90;;;;;;4961907;28;20059;-70
2022/04/24 06:22:54;;;;;;;2.92;2.08;;;8.90;99.90;;;;;;4977698;28;20057;-71
2022/04/24 06:25:22;;;;;;;5.43;3.38;;;8.90;99.90;;;;;;4957054;28;20061;-71
2022/04/24 06:27:49;;;;;;;2.75;2.55;;;8.90;99.90;;;;;;4953673;28;20502;-71
2022/04/24 06:30:17;;;;;;;8.05;2.35;;;9.20;99.90;;;;;;4963583;28;20185;-70
2022/04/24 06:32:44;;;;;;;2.08;1.38;;;9.50;99.90;;;;;;4972993;28;20180;-71
2022/04/24 06:35:11;;;;;;;5.85;4.05;;;9.90;99.90;;;;;;4972735;28;20050;-71
2022/04/24 06:37:38;;;;;;;5.60;3.15;;;10.30;99.90;;;;;;4974065;28;20058;-70
2022/04/24 06:40:09;;;;;;;4.88;3.00;;;10.50;99.90;;;;;;4972075;28;20053;-70
2022/04/24 06:42:35;;;;;;;4.07;3.03;;;10.70;99.90;;;;;;4993964;28;20050;-70
2022/04/24 06:45:01;;;;;;;5.82;4.22;;;10.90;99.90;;;;;;4992150;28;20057;-70
2022/04/24 06:47:28;;;;;;;5.55;3.05;;;11.10;99.90;;;;;;4965515;28;20103;-71
2022/04/24 06:49:56;;;;;;;2.17;1.92;;;11.50;99.90;;;;;;5026503;28;20063;-70
2022/04/24 06:52:22;;;;;;;2.85;2.15;;;11.90;99.90;;;;;;5036504;28;20098;-71
2022/04/24 06:54:48;;;;;;;5.05;3.50;;;12.30;99.90;;;;;;5036658;28;20151;-70
2022/04/24 06:57:14;;;;;;;4.10;2.72;;;12.40;99.90;;;;;;5053957;28;20151;-70
2022/04/24 06:59:40;;;;;;;2.95;2.25;;;12.40;99.90;;;;;;5045011;28;20132;-71
2022/04/24 07:02:06;;;;;;;3.20;2.20;;;12.50;99.90;;;;;;5048706;28;20046;-71
2022/04/24 07:04:31;;;;;;;2.90;2.17;;;12.50;99.70;;;;;;5054114;28;20040;-71
2022/04/24 07:06:57;;;;;;;3.72;2.78;;;12.10;99.60;;;;;;5063021;28;20043;-70
2022/04/24 07:09:23;;;;;;;2.65;1.88;;;11.60;99.90;;;;;;5037376;28;20097;-71
2022/04/24 07:11:48;;;;;;;0.98;0.90;;;11.40;99.90;;;;;;5055063;28;20044;-70
2022/04/24 07:14:14;;;;;;;2.17;1.98;;;11.30;99.90;;;;;;5041066;28;20503;-71
2022/04/24 07:16:41;;;;;;;3.65;2.08;;;11.30;99.90;;;;;;5072592;28;20039;-71
2022/04/24 07:19:06;;;;;;;3.88;2.63;;;11.30;99.90;;;;;;5055218;28;20071;-71
2022/04/24 07:21:32;;;;;;;2.78;2.20;;;11.20;99.90;;;;;;5058720;28;20078;-70
2022/04/24 07:23:58;;;;;;;4.05;1.85;;;11.20;99.90;;;;;;5035905;28;20048;-71
2022/04/24 07:26:23;;;;;;;3.45;2.05;;;11.20;99.90;;;;;;5050329;28;20561;-70
2022/04/24 07:28:49;;;;;;;1.83;1.60;;;11.30;99.90;;;;;;5057547;28;20055;-70
2022/04/24 07:31:18;;;;;;;2.55;2.08;;;11.30;99.90;;;;;;5052191;28;20051;-70
2022/04/24 07:33:43;;;;;;;0.98;0.98;;;11.40;99.90;;;;;;5046242;28;20046;-71
2022/04/24 07:36:09;;;;;;;0.68;0.68;;;11.40;99.90;;;;;;5022444;28;20043;-70
2022/04/24 07:38:34;;;;;;;1.73;1.63;;;11.60;99.90;;;;;;5064726;28;20048;-71
2022/04/24 07:41:00;;;;;;;0.45;0.45;;;11.70;99.90;;;;;;5056113;28;20050;-71
2022/04/24 07:43:26;;;;;;;1.95;1.60;;;11.80;99.90;;;;;;5063268;28;20414;-70
2022/04/24 07:45:51;;;;;;;4.88;2.47;;;11.90;99.90;;;;;;5037927;28;20072;-71
2022/04/24 07:48:18;;;;;;;2.28;1.65;;;12.10;99.00;;;;;;5048450;28;20040;-71
2022/04/24 07:50:46;;;;;;;2.33;1.65;;;12.20;98.70;;;;;;5047787;28;20457;-70
2022/04/24 07:53:13;;;;;;;0.95;0.88;;;12.20;97.00;;;;;;5071995;28;20385;-71
2022/04/24 07:55:46;;;;;;;3.55;2.10;;;12.20;97.90;;;;;;5048416;28;20437;-71
2022/04/24 07:58:13;;;;;;;2.05;1.58;;;12.30;96.90;;;;;;5049948;28;20124;-70
2022/04/24 08:00:39;;;;;;;0.98;0.95;;;12.40;95.80;;;;;;5043246;28;20382;-70
2022/04/24 08:03:13;;;;;;;1.98;1.33;;;12.40;96.20;;;;;;5036506;28;20037;-70
2022/04/24 08:05:41;;;;;;;2.42;1.88;;;12.50;96.80;;;;;;5041882;28;20123;-70
2022/04/24 08:08:19;;;;;;;2.05;1.65;;;12.60;95.10;;;;;;5050541;28;20032;-71
2022/04/24 08:10:47;;;;;;;1.30;1.20;;;12.70;93.70;;;;;;5015629;28;20404;-71
2022/04/24 08:13:13;;;;;;;1.83;1.10;;;12.70;94.50;;;;;;5048164;28;20056;-71
2022/04/24 08:15:39;;;;;;;0.93;0.93;;;12.60;95.40;;;;;;5054501;28;20404;-71
2022/04/24 08:18:05;;;;;;;2.05;1.20;;;12.60;95.30;;;;;;5061407;28;20047;-71
2022/04/24 08:20:32;;;;;;;4.60;2.03;;;12.60;95.60;;;;;;5070959;28;20051;-71
2022/04/24 08:23:07;;;;;;;1.05;1.05;;;12.70;94.40;;;;;;5060494;28;20047;-71
2022/04/24 08:25:35;;;;;;;1.40;1.23;;;12.70;94.50;;;;;;5061297;28;20047;-71
2022/04/24 08:28:02;;;;;;;2.55;1.98;;;12.60;95.20;;;;;;5053593;28;20056;-71
2022/04/24 08:30:28;;;;;;;2.42;1.38;;;12.70;94.60;;;;;;5047644;28;20040;-71
2022/04/24 08:32:54;;;;;;;1.02;0.55;;;12.70;93.70;;;;;;5037829;28;20541;-71
2022/04/24 08:35:20;;;;;;;1.13;0.88;;;12.70;93.50;;;;;;5025531;28;20134;-71
2022/04/24 08:37:47;;;;;;;0.57;0.57;;;12.80;94.60;;;;;;5060786;28;20049;-71
2022/04/24 08:40:15;;;;;;;2.97;0.93;;;12.90;94.50;;;;;;5064173;28;20037;-71
2022/04/24 08:42:41;;;;;;;3.53;2.28;;;13.10;94.40;;;;;;5049543;28;20119;-70
2022/04/24 08:45:12;;;;;;;3.42;2.42;;;13.40;92.90;;;;;;5051252;28;20532;-71
2022/04/24 08:47:38;;;;;;;1.52;1.20;;;13.90;91.10;;;;;;5056365;28;20383;-71
2022/04/24 08:50:04;;;;;;;3.58;1.85;;;14.50;90.30;;;;;;5047316;28;20139;-71
2022/04/24 08:52:31;;;;;;;2.85;1.73;;;15.10;88.20;;;;;;5050999;28;20072;-71
2022/04/24 08:54:58;;;;;;;1.80;1.38;;;15.50;82.60;;;;;;5044986;28;20043;-71
2022/04/24 08:57:30;;;;;;;0.30;0.30;;;15.80;80.50;;;;;;5034025;28;20056;-71
2022/04/24 09:00:00;;;;;;;4.03;1.75;;;16.40;83.50;;;;;;5050903;28;20052;-71
2022/04/24 09:02:26;;;;;;;1.25;1.17;;;16.70;74.90;;;;;;5034100;28;20049;-71
2022/04/24 09:04:53;;;;;;;2.15;1.85;;;16.80;75.10;;;;;;5036225;28;20043;-71
2022/04/24 09:07:19;;;;;;;1.52;1.42;;;16.80;70.20;;;;;;5033600;28;20082;-69
2022/04/24 09:09:55;;;;;;;14.50;2.10;;;16.90;72.20;;;;;;5033919;28;20052;-69
2022/04/24 09:12:28;;;;;;;2.75;1.60;;;17.00;69.00;;;;;;5046320;28;20044;-69
2022/04/24 09:14:56;;;;;;;1.27;1.17;;;16.90;66.10;;;;;;5050585;28;20037;-69
2022/04/24 09:17:27;;;;;;;2.70;1.00;;;16.80;67.30;;;;;;5030435;28;20056;-69
2022/04/24 09:19:55;;;;;;;1.85;1.67;;;16.80;66.50;;;;;;5030624;28;20049;-69
2022/04/24 09:22:39;;;;;;;1.08;1.02;;;17.10;68.50;;;;;;4966860;28;20534;-69
2022/04/24 09:25:05;;;;;;;0.63;0.52;;;17.30;67.60;;;;;;4989649;28;20061;-70
2022/04/24 09:27:37;;;;;;;1.92;1.52;;;17.60;69.60;;;;;;4990248;28;20056;-70
2022/04/24 09:30:14;;;;;;;2.30;1.63;;;17.60;65.60;;;;;;4989189;28;20426;-69
2022/04/24 09:32:47;;;;;;;2.15;1.98;;;17.40;65.90;;;;;;4973695;28;20068;-69
2022/04/24 09:35:25;;;;;;;2.05;1.85;;;17.10;65.90;;;;;;4989875;28;20058;-69
2022/04/24 09:37:51;;;;;;;1.25;1.10;;;17.20;65.80;;;;;;4991436;28;20578;-69
2022/04/24 09:40:17;;;;;;;2.20;1.55;;;17.10;65.40;;;;;;4993733;28;20136;-69
2022/04/24 09:42:54;;;;;;;8.88;2.78;;;17.20;68.30;;;;;;4994400;28;20056;-69
2022/04/24 09:45:24;;;;;;;2.13;1.90;;;17.30;65.10;;;;;;4992934;28;20054;-70
2022/04/24 09:47:57;;;;;;;3.17;1.90;;;17.30;67.00;;;;;;4983308;28;20054;-69
2022/04/24 09:50:23;;;;;;;1.70;1.60;;;17.20;64.90;;;;;;4973716;28;20221;-69
2022/04/24 09:52:48;;;;;;;2.88;1.90;;;17.00;66.20;;;;;;4973873;28;20429;-69
2022/04/24 09:55:15;;;;;;;2.38;1.67;;;17.10;65.50;;;;;;4993733;28;20101;-69
2022/04/24 09:57:42;;;;;;;0.95;0.93;;;17.10;64.30;;;;;;4975752;28;20524;-69
2022/04/24 10:00:08;;;;;;;4.68;1.77;;;17.00;64.80;;;;;;5025281;28;20064;-70
2022/04/24 10:02:35;;;;;;;2.95;1.30;;;16.90;63.60;;;;;;5039378;28;20045;-69
2022/04/24 10:05:03;;;;;;;5.70;1.88;;;16.90;65.40;;;;;;5033890;28;20087;-69
2022/04/24 10:07:29;;;;;;;2.25;1.50;;;16.90;64.20;;;;;;5033908;28;20066;-69
2022/04/24 10:09:55;;;;;;;2.90;1.50;;;16.80;64.20;;;;;;5051898;28;20514;-69
2022/04/24 10:12:21;;;;;;;4.25;1.75;;;16.80;63.40;;;;;;5053926;28;20029;-69
2022/04/24 10:14:57;;;;;;;3.28;1.63;;;16.40;63.80;;;;;;5053077;28;20146;-69
2022/04/24 10:17:49;;;;;;;2.00;0.60;;;16.40;66.60;;;;;;5030845;28;20048;-69
2022/04/24 10:20:51;;;;;;;5.57;1.90;;;16.50;65.40;;;;;;5004777;28;20060;-69
2022/04/24 10:23:33;;;;;;;2.55;1.85;;;16.70;66.10;;;;;;5053391;28;20440;-69
2022/04/24 10:25:59;;;;;;;5.80;1.85;;;16.70;66.60;;;;;;5053385;28;20051;-69
2022/04/24 10:28:36;;;;;;;1.08;0.98;;;16.80;64.40;;;;;;5052609;28;20127;-69
2022/04/24 10:31:03;;;;;;;0.85;0.75;;;16.70;63.90;;;;;;5036646;28;20435;-69
2022/04/24 10:33:30;;;;;;;3.83;1.80;;;16.60;63.90;;;;;;5053089;28;20402;-69
2022/04/24 10:36:03;;;;;;;1.17;1.08;;;16.60;64.50;;;;;;5033192;28;20048;-69
2022/04/24 10:38:29;;;;;;;;;;;16.60;66.00;;;;;;5033973;28;20459;-69
2022/04/24 10:41:06;;;;;;;1.38;1.27;;;16.80;67.90;;;;;;5035978;28;19963;-69
2022/04/24 10:43:40;;;;;;;1.65;1.55;;;17.00;64.70;;;;;;5053081;28;20139;-69
2022/04/24 10:46:28;;;;;;;2.60;1.48;;;16.90;64.00;;;;;;5030159;28;20112;-69
2022/04/24 10:49:05;;;;;;;2.47;1.05;;;16.90;63.30;;;;;;5064465;28;20047;-69
2022/04/24 10:51:32;;;;;;;2.45;1.88;;;16.80;64.20;;;;;;5028627;28;20048;-69
2022/04/24 10:54:01;;;;;;;2.58;1.70;;;16.70;63.50;;;;;;5055931;28;20055;-69
2022/04/24 10:56:29;;;;;;;0.28;0.28;;;16.60;64.80;;;;;;5026612;28;20094;-69
2022/04/24 10:59:09;;;;;;;1.65;0.75;;;16.70;66.50;;;;;;5024177;28;20396;-70
2022/04/24 11:01:36;;;;;;;2.45;1.50;;;17.10;66.10;;;;;;5046930;28;20571;-70
2022/04/24 11:04:06;;;;;;;2.03;1.20;;;17.20;64.10;;;;;;5048789;28;20036;-69
2022/04/24 11:06:32;;;;;;;0.50;0.50;;;17.30;63.50;;;;;;5029675;28;20454;-70
2022/04/24 11:09:07;;;;;;;2.75;2.00;;;17.40;65.10;;;;;;5047327;28;20093;-70
2022/04/24 11:11:34;;;;;;;1.92;1.50;;;17.60;64.50;;;;;;5043327;28;20033;-69
2022/04/24 11:14:01;;;;;;;4.00;1.98;;;17.60;60.00;;;;;;5039779;28;20048;-69
2022/04/24 11:16:27;;;;;;;1.60;1.23;;;17.50;62.70;;;;;;5047278;28;20711;-70
2022/04/24 11:18:53;;;;;;;1.00;0.93;;;17.50;63.50;;;;;;5032815;28;20032;-70
2022/04/24 11:21:21;;;;;;;1.00;0.95;;;17.40;65.00;;;;;;5034943;28;20196;-70
2022/04/24 11:23:47;;;;;;;1.13;0.95;;;17.60;65.60;;;;;;5046842;28;20040;-70
2022/04/24 11:26:12;;;;;;;4.40;1.20;;;17.40;66.00;;;;;;5027133;28;20484;-70
2022/04/24 11:28:49;;;;;;;0.75;0.75;;;17.20;66.40;;;;;;5048274;28;20051;-70
2022/04/24 11:31:19;;;;;;;1.45;1.35;;;17.00;68.00;;;;;;5060970;28;20036;-70
2022/04/24 11:33:59;;;;;;;3.95;1.17;;;16.70;67.00;;;;;;5034002;28;20049;-70
2022/04/24 11:36:34;;;;;;;3.78;2.05;;;16.70;72.40;;;;;;5055009;28;20056;-70
2022/04/24 11:39:02;;;;;;;2.20;1.92;;;16.90;72.60;;;;;;5043044;28;20119;-69
2022/04/24 11:41:29;;;;;;;2.42;1.77;;;17.00;72.60;;;;;;5040158;28;20045;-69
2022/04/24 11:52:31;;;;;;;1.83;1.70;;;16.70;71.20;;;;;;5050585;28;20226;-69
2022/04/24 11:54:57;;;;;;;3.63;2.50;;;16.60;73.30;;;;;;5044929;28;20119;-69
2022/04/24 11:57:24;;;;;;;1.90;1.25;;;16.70;74.10;;;;;;5046626;28;20064;-69
2022/04/24 11:59:56;;;;;;;1.10;1.08;;;16.50;74.50;;;;;;5049969;28;20433;-69
2022/04/24 12:02:27;;;;;;;5.53;2.10;;;16.50;80.00;;;;;;5039732;28;20074;-69
2022/04/24 12:04:53;;;;;;;5.80;2.97;;;16.80;78.80;;;;;;5046932;28;20112;-70
2022/04/24 12:07:20;;;;;;;2.13;1.92;;;16.80;75.00;;;;;;5028179;28;20044;-69
2022/04/24 12:10:01;;;;;;;6.00;2.97;;;16.60;75.00;;;;;;5045930;28;20062;-69
2022/04/24 12:12:27;;;;;;;4.93;3.22;;;16.60;73.30;;;;;;5063133;28;20407;-69
2022/04/24 12:14:54;;;;;;;4.47;2.30;;;16.40;75.70;;;;;;5042570;28;20045;-69
2022/04/24 12:17:20;;;;;;;2.58;1.50;;;16.30;75.20;;;;;;5051527;28;20040;-70
2022/04/24 12:19:56;;;;;;;0.22;0.22;;;16.20;77.10;;;;;;5047963;28;20123;-69
2022/04/24 12:22:30;;;;;;;1.17;0.98;;;16.40;80.00;;;;;;5028017;28;20101;-69
2022/04/24 12:25:09;;;;;;;0.98;0.80;;;16.70;80.20;;;;;;5046704;28;20056;-69
2022/04/24 12:27:36;;;;;;;4.40;3.17;;;16.80;75.50;;;;;;5023537;28;20037;-69
2022/04/24 12:30:04;;;;;;;2.80;2.20;;;16.60;75.00;;;;;;5047245;28;20125;-69
2022/04/24 12:32:30;;;;;;;1.42;1.33;;;16.30;75.50;;;;;;5056421;28;20483;-70
2022/04/24 12:34:56;;;;;;;3.75;2.85;;;16.20;76.80;;;;;;5039869;28;20086;-69
2022/04/24 12:37:31;;;;;;;2.92;2.08;;;16.20;74.50;;;;;;5043507;28;20085;-69
2022/04/24 12:39:57;;;;;;;4.85;1.75;;;16.00;74.40;;;;;;5043843;28;20391;-69
2022/04/24 12:42:24;;;;;;;2.40;2.03;;;16.00;78.80;;;;;;5012873;28;20040;-69
2022/04/24 12:44:51;;;;;;;4.15;2.03;;;16.10;79.60;;;;;;5042513;28;20549;-69
2022/04/24 12:47:18;;;;;;;2.00;1.58;;;16.30;81.00;;;;;;5049275;28;20392;-69
2022/04/24 12:49:46;;;;;;;6.95;2.58;;;16.30;76.50;;;;;;5042192;28;20067;-69
2022/04/24 12:52:12;;;;;;;1.35;1.25;;;16.20;78.60;;;;;;5037978;28;20044;-69
2022/04/24 12:54:38;;;;;;;6.78;2.80;;;16.30;77.90;;;;;;5042385;28;20472;-69
2022/04/24 12:57:06;;;;;;;4.40;1.40;;;16.40;81.40;;;;;;5040387;28;20099;-70
2022/04/24 12:59:34;;;;;;;2.00;1.23;;;16.60;80.80;;;;;;5042425;28;20048;-69
2022/04/24 13:02:04;;;;;;;5.78;1.33;;;16.50;78.00;;;;;;5028612;28;20059;-69
2022/04/24 13:04:30;;;;;;;0.40;0.40;;;16.50;79.10;;;;;;5021495;28;20041;-69
2022/04/24 13:06:56;;;;;;;2.35;1.85;;;16.50;80.30;;;;;;5044007;28;20107;-69
2022/04/24 13:09:21;;;;;;;2.45;1.35;;;16.70;78.40;;;;;;5041636;28;20044;-70
2022/04/24 13:11:47;;;;;;;2.35;0.80;;;16.70;77.60;;;;;;5043943;28;20037;-69
2022/04/24 13:14:13;;;;;;;2.80;1.77;;;16.50;77.90;;;;;;5027322;28;20067;-69
2022/04/24 13:19:24;;;;;;;2.20;2.00;;;16.60;82.20;;;;;;5041889;28;20487;-69